• Join FlightAware (Why Join?)
  • Login
  • US Flag 
02:57PM EDT


 

Airport Tracker/Info


-or-


 

Live Flight TrackerFlight Track Log ✈ GJS3706 ✈ 08-Sep-2013 ✈ KBTV - KORD

Flight Track Log - Related Links

Times and Time Zones

All times are in EDT time to prevent confusion due to time zone crossing. See the GJS3706 flight status page for this flight to view local times or setup timezone preferences in your user account.

Time Position Orientation Groundspeed Altitude Reporting Facility
EDT Latitude Longitude Course Direction KTS MPH feet Rate Location/Type
12:05PM 44.4536 -73.3358 258° West 220 253 5,300  Level Boston Center
12:06PM 44.4361 -73.4372 256° West 274 315 7,800 2,460 Climbing Boston Center
12:07PM 44.4186 -73.6780 255° West  Level Estimated
12:07PM 44.4208 -73.5242 256° West 264 304 10,200  Level Boston Center
12:08PM 44.3876 -73.8030 251° West  Level FlightAware Approximate
12:08PM 44.4008 -73.6489 257° West 283 326 12,000  Level Boston Center
12:09PM 44.3564 -73.9279 251° West  Level FlightAware Approximate
12:09PM 44.3786 -73.7675 255° West 312 359 14,700  Level Boston Center
12:10PM 44.3427 -74.0588 258° West  Level Estimated
12:10PM 44.3564 -73.8889 256° West 317 365 16,400  Level Boston Center
12:11PM 44.3339 -74.0103 256° West 323 372 18,300 1,800 Climbing Boston Center
12:12PM 44.3133 -74.1375 257° West 328 377 20,100 1,620 Climbing Boston Center
12:13PM 44.2928 -74.2672 258° West 338 389 21,700 1,380 Climbing Boston Center
12:14PM 44.2656 -74.3997 254° West 344 396 23,000 1,200 Climbing Boston Center
12:15PM 44.2422 -74.5381 257° West 361 415 24,200 1,080 Climbing Boston Center
12:16PM 44.2167 -74.6792 256° West 371 427 25,200 960 Climbing Boston Center
12:17PM 44.1886 -74.8289 255° West 389 448 26,200 1,020 Climbing Boston Center
12:18PM 44.1628 -74.9694 256° West 402 463 27,300 1,020 Climbing Boston Center
12:19PM 44.1364 -75.1161 256° West 402 463 28,300 960 Climbing Boston Center
12:20PM 44.1078 -75.2708 256° West 407 468 29,300 900 Climbing Boston Center
12:21PM 44.0789 -75.4228 255° West 412 474 30,200 900 Climbing Boston Center
12:22PM 44.0497 -75.5772 255° West 412 474 31,100 900 Climbing Boston Center
12:23PM 44.0203 -75.7317 255° West 412 474 32,000 900 Climbing Boston Center
12:24PM 43.9908 -75.8858 255° West 412 474 33,000 960 Climbing Boston Center
12:25PM 43.9611 -76.0400 255° West 412 474 34,000 900 Climbing Boston Center
12:26PM 43.9439 -76.1889 261° West 407 468 34,800 780 Climbing Boston Center
12:27PM 43.9325 -76.3383 264° West 407 468 35,600 540 Climbing Boston Center
12:28PM 43.9189 -76.4903 263° West 407 468 36,000 180 Climbing Boston Center
12:29PM 43.8833 -76.6500 253° West 400 460 36,000  Level Toronto Center
12:30PM 43.8667 -76.8167 262° West 400 460 36,000  Level Toronto Center
12:31PM 43.8500 -76.9667 261° West 410 472 36,000  Level Toronto Center
12:32PM 43.8333 -77.1333 262° West 410 472 36,000  Level Toronto Center
12:33PM 43.8167 -77.2833 261° West 400 460 36,000  Level Toronto Center
12:34PM 43.8167 -77.4333 270° West 410 472 36,000  Level Toronto Center
12:35PM 43.8000 -77.6000 262° West 400 460 36,000  Level Toronto Center
12:36PM 43.7833 -77.7333 260° West 400 460 36,000  Level Toronto Center
12:37PM 43.7667 -77.9000 262° West 400 460 36,000  Level Toronto Center
12:38PM 43.7500 -78.0667 262° West 410 472 36,000  Level Toronto Center
12:39PM 43.7333 -78.2000 260° West 410 472 36,000  Level Toronto Center
12:40PM 43.7000 -78.3667 255° West 410 472 36,000  Level Toronto Center
12:41PM 43.7000 -78.5333 270° West 410 472 36,000  Level Toronto Center
12:42PM 43.6833 -78.6833 261° West 400 460 36,000  Level Toronto Center
12:43PM 43.6667 -78.8333 261° West 410 472 36,000  Level Toronto Center
12:44PM 43.6500 -78.9833 261° West 410 472 36,000  Level Toronto Center
12:45PM 43.6333 -79.1500 262° West 410 472 36,000  Level Toronto Center
12:46PM 43.6333 -79.3167 270° West 410 472 36,000  Level Toronto Center
12:47PM 43.6000 -79.4667 253° West 410 472 36,000  Level Toronto Center
12:48PM 43.6000 -79.6167 270° West 420 483 36,000  Level Toronto Center
12:49PM 43.5833 -79.7667 261° West 420 483 36,000  Level Toronto Center
12:50PM 43.5667 -79.9333 262° West 410 472 36,000  Level Toronto Center
12:51PM 43.5500 -80.1000 262° West 420 483 36,000  Level Toronto Center
12:52PM 43.5333 -80.2500 261° West 420 483 36,000  Level Toronto Center
12:53PM 43.5167 -80.4167 262° West 410 472 36,000  Level Toronto Center
12:54PM 43.5000 -80.5833 262° West 410 472 36,000  Level Toronto Center
12:55PM 43.4833 -80.7167 260° West 410 472 36,000  Level Toronto Center
12:56PM 43.4500 -80.8667 253° West 420 483 36,000  Level Toronto Center
12:57PM 43.4333 -81.0333 262° West 420 483 36,000  Level Toronto Center
12:58PM 43.4167 -81.2000 262° West 420 483 36,000  Level Toronto Center
12:59PM 43.4000 -81.3500 261° West 420 483 36,000  Level Toronto Center
01:00PM 43.3833 -81.5167 262° West 410 472 36,000  Level Toronto Center
01:01PM 43.3667 -81.6667 261° West 420 483 36,000  Level Toronto Center
01:02PM 43.3667 -81.8167 270° West 410 472 36,000  Level Toronto Center
01:03PM 43.3333 -81.9667 253° West 410 472 36,000  Level Toronto Center
01:04PM 43.3167 -82.1333 262° West 410 472 36,000  Level Toronto Center
01:05PM 43.3000 -82.2833 261° West 410 472 36,000  Level Toronto Center
01:06PM 43.2833 -82.4500 262° West 410 472 36,000  Level Toronto Center
01:07PM 43.2667 -82.5833 260° West 410 472 36,000  Level Toronto Center
01:08PM 43.2333 -82.7500 255° West 410 472 36,000  Level Toronto Center
01:09PM 43.1833 -82.9000 245° Southwest 420 483 36,000  Level Toronto Center
01:10PM 43.1500 -83.0667 255° West 430 495 36,000  Level Toronto Center
01:11PM 43.1167 -83.2000 251° West 440 506 36,000  Level Toronto Center
01:12PM 43.0500 -83.3833 244° Southwest 430 495 36,000  Level Toronto Center
01:13PM 43.0167 -83.5167 251° West 420 483 36,000 -120 Level Toronto Center
01:14PM 42.9833 -83.6667 253° West 430 495 35,800 -600 Descending Toronto Center
01:15PM 42.9333 -83.8167 246° West 430 495 34,800 -960 Descending Toronto Center
01:16PM 42.9492 -83.9281 281° West 422 486 34,100 -960 Descending Chicago Center
01:17PM 42.9336 -84.0864 262° West 422 486 33,100 -900 Descending Chicago Center
01:18PM 42.9178 -84.2450 262° West 422 486 32,300 -540 Descending Chicago Center
01:19PM 42.8986 -84.4372 262° West 428 493 32,000 -180 Descending Chicago Center
01:20PM 42.8825 -84.5986 262° West 431 496 32,000  Level Chicago Center
01:21PM 42.8661 -84.7597 262° West 431 496 32,000  Level Chicago Center
01:22PM 42.8492 -84.9181 262° West 423 487 32,000  Level Chicago Center
01:23PM 42.8322 -85.0753 262° West 421 484 32,000  Level Chicago Center
01:24PM 42.8158 -85.2319 262° West 420 483 32,000  Level Chicago Center
01:25PM 42.7942 -85.4222 261° West 423 487 32,000 -960 Level Chicago Center
01:27PM 42.7700 -85.5872 259° West 440 506 30,100 -2,280 Descending Chicago Center
01:28PM 42.7408 -85.7517 256° West 444 511 27,400 -2,520 Descending Chicago Center
01:29PM 42.7125 -85.9097 256° West 431 496 24,900 -2,340 Descending Chicago Center
01:30PM 42.6839 -86.0664 256° West 425 489 22,600 -2,160 Descending Chicago Center
01:31PM 42.6564 -86.2167 256° West 412 474 20,500 -1,560 Descending Chicago Center
01:32PM 42.6294 -86.3597 256° West 394 453 19,400 -1,260 Descending Chicago Center
01:33PM 42.6036 -86.5028 256° West 391 450 17,900 -1,800 Descending Chicago Center
01:34PM 42.5722 -86.6708 256° West 387 445 15,700 -2,040 Descending Chicago Center
01:35PM 42.5397 -86.8056 252° West 379 436 13,800 -1,860 Descending Chicago Center
01:36PM 42.5053 -86.9325 250° West 367 422 11,900 -1,800 Descending Chicago Center
01:37PM 42.4722 -87.0558 250° West 352 405 10,200 -960 Descending Chicago Center
01:38PM 42.4397 -87.1747 250° West 340 391 10,000 -120 Descending Chicago Center
01:39PM 42.4056 -87.2961 249° West 345 397 10,000  Level Chicago Center
01:40PM 42.3675 -87.4397 250° West 347 399 10,000  Level Chicago Center
01:41PM 42.3236 -87.5519 242° Southwest 345 397 10,000  Level Chicago Center
01:42PM 42.2497 -87.6317 219° Southwest 340 391 10,000 -420 Level Chicago Center
01:43PM 42.1875 -87.6958 217° Southwest 290 334 9,200 -1,080 Descending Chicago Center
01:44PM 42.1139 -87.7731 218° Southwest 283 326 7,800 -1,080 Descending Chicago Center
01:45PM 42.0500 -87.8333 215° Southwest 265 305 7,000 -420 Descending Chicago TRACON
01:46PM 42.0000 -87.9167 231° Southwest 211 243 7,000  Level Chicago TRACON
01:47PM 41.9667 -87.9667 228° Southwest 280 322 7,000 -120 Level Chicago TRACON
01:48PM 41.9167 -88.0333 225° Southwest 231 266 6,800 -780 Descending Chicago TRACON
01:49PM 41.9000 -88.1333 257° West 251 289 5,500 -900 Descending Chicago TRACON
01:50PM 41.8744 -88.2206 249° West 245 282 5,000 -240 Descending Chicago Center
01:51PM 41.8736 -88.2931 269° West 216 249 5,000  Level Chicago Center
01:52PM 41.8761 -88.3603 273° West 197 227 5,000  Level Chicago Center
01:53PM 41.9286 -88.3678 354° North 197 227 5,000  Level Chicago Center
01:54PM 41.9561 -88.2972 62° Northeast 187 215 5,000  Level Chicago Center
01:55PM 41.9678 -88.2369 75° East 174 200 5,000 -480 Level Chicago Center
01:57PM 41.9678 -88.1683 90° East 181 208 4,100 -900 Descending Chicago Center
01:58PM 41.9681 -88.1089 90° East 173 199 3,200 -900 Descending Chicago Center
01:58PM 41.9667 -88.0667 93° East 153 176 2,700 -840 Descending Chicago TRACON
01:59PM 41.9667 -88.0167 90° East 135 155 1,900 -720 Descending Chicago TRACON
02:00PM 41.9667 -87.9667 90° East 130 150 1,300 -600 Descending Chicago TRACON